CHH8547 ZGHA-ZBAA
Flight info
| Callsign | CHH8547 |
|---|---|
| Flight time | N/A |
| Altitude | 35100 |
| Route | GUD9X GUDRO W56 DUGEB |
| Aircraft | A21N/M-SDE2E3FGHIRWXY/LB1 |
Departure
| Time | 2026-04-23 09:27 |
|---|---|
| Airport | Changsha Huanghua International Airport (ZGHA) |
Arrival
| Time | N/A |
|---|---|
| Airport | Beijing Capital International Airport (ZBAA) |
| Time | Latitude | Longitude | Altitude | Speed | Heading |
|---|---|---|---|---|---|
| 2026-04-23 09:19 | 28.19825 | 113.21635 | 219 ft | 0 kts | 176° |
| 2026-04-23 09:19 | 28.19824 | 113.21635 | 219 ft | 1 kts | 176° |
| 2026-04-23 09:19 | 28.19811 | 113.21636 | 230 ft | 3 kts | 178° |
| 2026-04-23 09:20 | 28.19778 | 113.21636 | 224 ft | 6 kts | 178° |
| 2026-04-23 09:20 | 28.19704 | 113.21641 | 219 ft | 10 kts | 177° |
| 2026-04-23 09:20 | 28.19654 | 113.21644 | 223 ft | 12 kts | 177° |
| 2026-04-23 09:20 | 28.19565 | 113.21649 | 221 ft | 13 kts | 177° |
| 2026-04-23 09:21 | 28.19478 | 113.21653 | 221 ft | 10 kts | 177° |
| 2026-04-23 09:21 | 28.19417 | 113.21667 | 222 ft | 7 kts | 148° |
| 2026-04-23 09:21 | 28.19398 | 113.21725 | 220 ft | 9 kts | 102° |
| 2026-04-23 09:21 | 28.19346 | 113.21763 | 222 ft | 10 kts | 177° |
| 2026-04-23 09:22 | 28.19269 | 113.21767 | 222 ft | 12 kts | 177° |
| 2026-04-23 09:22 | 28.19183 | 113.21773 | 222 ft | 13 kts | 177° |
| 2026-04-23 09:22 | 28.19082 | 113.21779 | 220 ft | 16 kts | 176° |
| 2026-04-23 09:22 | 28.18966 | 113.21786 | 219 ft | 18 kts | 177° |
| 2026-04-23 09:23 | 28.18835 | 113.21794 | 222 ft | 20 kts | 177° |
| 2026-04-23 09:23 | 28.18690 | 113.21803 | 222 ft | 22 kts | 176° |
| 2026-04-23 09:23 | 28.18534 | 113.21813 | 222 ft | 23 kts | 177° |
| 2026-04-23 09:23 | 28.18372 | 113.21823 | 222 ft | 24 kts | 177° |
| 2026-04-23 09:24 | 28.18204 | 113.21833 | 223 ft | 25 kts | 177° |
| 2026-04-23 09:24 | 28.18030 | 113.21844 | 221 ft | 25 kts | 177° |
| 2026-04-23 09:24 | 28.17878 | 113.21853 | 220 ft | 21 kts | 177° |
| 2026-04-23 09:24 | 28.17815 | 113.21857 | 220 ft | 6 kts | 176° |
| 2026-04-23 09:25 | 28.17768 | 113.21870 | 223 ft | 8 kts | 148° |
| 2026-04-23 09:25 | 28.17742 | 113.21935 | 223 ft | 11 kts | 91° |
| 2026-04-23 09:25 | 28.17747 | 113.21999 | 221 ft | 6 kts | 73° |
| 2026-04-23 09:25 | 28.17772 | 113.22040 | 223 ft | 5 kts | 31° |
| 2026-04-23 09:26 | 28.17808 | 113.22044 | 221 ft | 0 kts | 357° |
| 2026-04-23 09:26 | 28.17821 | 113.22044 | 221 ft | 15 kts | 357° |
| 2026-04-23 09:26 | 28.18178 | 113.22022 | 221 ft | 87 kts | 357° |
| 2026-04-23 09:27 | 28.18977 | 113.21973 | 222 ft | 144 kts | 356° |
| 2026-04-23 09:27 | 28.20119 | 113.21902 | 423 ft | 168 kts | 357° |
| 2026-04-23 09:27 | 28.21248 | 113.21826 | 1128 ft | 164 kts | 356° |
| 2026-04-23 09:27 | 28.22400 | 113.21760 | 1789 ft | 164 kts | 357° |
| 2026-04-23 09:28 | 28.23545 | 113.21689 | 2406 ft | 166 kts | 357° |
| 2026-04-23 09:28 | 28.24699 | 113.21619 | 3067 ft | 166 kts | 357° |
| 2026-04-23 09:28 | 28.25876 | 113.21545 | 3662 ft | 176 kts | 356° |
| 2026-04-23 09:28 | 28.27153 | 113.21512 | 4155 ft | 191 kts | 3° |
| 2026-04-23 09:29 | 28.28443 | 113.22000 | 4686 ft | 208 kts | 31° |
| 2026-04-23 09:29 | 28.29455 | 113.23238 | 5252 ft | 222 kts | 53° |
| 2026-04-23 09:29 | 28.30301 | 113.24718 | 5710 ft | 224 kts | 54° |
| 2026-04-23 09:29 | 28.31154 | 113.26208 | 6189 ft | 226 kts | 54° |
| 2026-04-23 09:30 | 28.32016 | 113.27690 | 6674 ft | 227 kts | 53° |
| 2026-04-23 09:30 | 28.32898 | 113.29193 | 7141 ft | 231 kts | 53° |
| 2026-04-23 09:30 | 28.33798 | 113.30722 | 7549 ft | 239 kts | 53° |
| 2026-04-23 09:30 | 28.34768 | 113.32362 | 7881 ft | 260 kts | 53° |
| 2026-04-23 09:31 | 28.35816 | 113.34130 | 8271 ft | 279 kts | 53° |
| 2026-04-23 09:31 | 28.36901 | 113.35963 | 8907 ft | 286 kts | 53° |
| 2026-04-23 09:31 | 28.38018 | 113.37855 | 9664 ft | 291 kts | 53° |
| 2026-04-23 09:31 | 28.39176 | 113.39816 | 10273 ft | 302 kts | 53° |
| 2026-04-23 09:32 | 28.40386 | 113.41861 | 10594 ft | 322 kts | 53° |
| 2026-04-23 09:32 | 28.41658 | 113.44012 | 10867 ft | 342 kts | 52° |
| 2026-04-23 09:32 | 28.43233 | 113.46102 | 11118 ft | 356 kts | 37° |
| 2026-04-23 09:32 | 28.45389 | 113.47559 | 11601 ft | 358 kts | 17° |
| 2026-04-23 09:33 | 28.47790 | 113.48119 | 12230 ft | 357 kts | 1° |
| 2026-04-23 09:33 | 28.50284 | 113.48279 | 12920 ft | 360 kts | 359° |
| 2026-04-23 09:33 | 28.52800 | 113.48409 | 13598 ft | 364 kts | 358° |
| 2026-04-23 09:33 | 28.55349 | 113.48559 | 14199 ft | 369 kts | 359° |
| 2026-04-23 09:34 | 28.57932 | 113.48728 | 14756 ft | 373 kts | 359° |
| 2026-04-23 09:34 | 28.60545 | 113.48909 | 15323 ft | 378 kts | 359° |
| 2026-04-23 09:34 | 28.63186 | 113.49093 | 15890 ft | 382 kts | 359° |
| 2026-04-23 09:34 | 28.65853 | 113.49284 | 16435 ft | 386 kts | 359° |
| 2026-04-23 09:35 | 28.68500 | 113.49476 | 16981 ft | 390 kts | 359° |
| 2026-04-23 09:35 | 28.71234 | 113.49669 | 17511 ft | 394 kts | 358° |
| 2026-04-23 09:35 | 28.73985 | 113.49864 | 18057 ft | 398 kts | 358° |
| 2026-04-23 09:35 | 28.76759 | 113.50066 | 18549 ft | 402 kts | 358° |
| 2026-04-23 09:36 | 28.79567 | 113.50267 | 19030 ft | 405 kts | 358° |
| 2026-04-23 09:36 | 28.82388 | 113.50470 | 19505 ft | 408 kts | 358° |
| 2026-04-23 09:36 | 28.85234 | 113.50675 | 19993 ft | 411 kts | 358° |
| 2026-04-23 09:36 | 28.88098 | 113.50883 | 20462 ft | 414 kts | 358° |
| 2026-04-23 09:37 | 28.90990 | 113.51089 | 20940 ft | 417 kts | 357° |
| 2026-04-23 09:37 | 28.93860 | 113.51295 | 21410 ft | 420 kts | 357° |
| 2026-04-23 09:37 | 28.96778 | 113.51506 | 21907 ft | 421 kts | 357° |
| 2026-04-23 09:37 | 28.99724 | 113.51719 | 22379 ft | 425 kts | 357° |
| 2026-04-23 09:38 | 29.02689 | 113.51931 | 22801 ft | 429 kts | 357° |
| 2026-04-23 09:38 | 29.05679 | 113.52145 | 23245 ft | 433 kts | 357° |
| 2026-04-23 09:38 | 29.08697 | 113.52363 | 23682 ft | 435 kts | 357° |
| 2026-04-23 09:38 | 29.11732 | 113.52583 | 24059 ft | 438 kts | 356° |
| 2026-04-23 09:39 | 29.14784 | 113.52804 | 24420 ft | 441 kts | 356° |
| 2026-04-23 09:39 | 29.17856 | 113.53026 | 24786 ft | 443 kts | 356° |
| 2026-04-23 09:39 | 29.20950 | 113.53248 | 25136 ft | 446 kts | 356° |
| 2026-04-23 09:39 | 29.24047 | 113.53473 | 25504 ft | 448 kts | 355° |
| 2026-04-23 09:40 | 29.27156 | 113.53699 | 25832 ft | 450 kts | 355° |
| 2026-04-23 09:40 | 29.30283 | 113.53934 | 26183 ft | 452 kts | 356° |
| 2026-04-23 09:40 | 29.33442 | 113.54207 | 26468 ft | 456 kts | 356° |
| 2026-04-23 09:40 | 29.36613 | 113.54489 | 26743 ft | 459 kts | 356° |
| 2026-04-23 09:41 | 29.39815 | 113.54768 | 27047 ft | 462 kts | 355° |
| 2026-04-23 09:41 | 29.43030 | 113.55044 | 27334 ft | 465 kts | 355° |
| 2026-04-23 09:41 | 29.46277 | 113.55323 | 27527 ft | 471 kts | 355° |
| 2026-04-23 09:41 | 29.49519 | 113.55603 | 27660 ft | 477 kts | 355° |
| 2026-04-23 09:42 | 29.52838 | 113.55889 | 27966 ft | 477 kts | 355° |
| 2026-04-23 09:42 | 29.56150 | 113.56177 | 28389 ft | 476 kts | 355° |
| 2026-04-23 09:42 | 29.59443 | 113.56470 | 28772 ft | 475 kts | 355° |
| 2026-04-23 09:42 | 29.62747 | 113.56760 | 29120 ft | 476 kts | 355° |
| 2026-04-23 09:43 | 29.66053 | 113.57048 | 29327 ft | 479 kts | 355° |
| 2026-04-23 09:43 | 29.69400 | 113.57334 | 29459 ft | 484 kts | 355° |
| 2026-04-23 09:43 | 29.72782 | 113.57626 | 29567 ft | 490 kts | 355° |
| 2026-04-23 09:43 | 29.76196 | 113.57924 | 29718 ft | 493 kts | 355° |
| 2026-04-23 09:44 | 29.79619 | 113.58221 | 29931 ft | 495 kts | 355° |
| 2026-04-23 09:44 | 29.83057 | 113.58524 | 30172 ft | 495 kts | 355° |
| 2026-04-23 09:44 | 29.86481 | 113.58824 | 30385 ft | 495 kts | 354° |
| 2026-04-23 09:44 | 29.89917 | 113.59126 | 30622 ft | 494 kts | 354° |
| 2026-04-23 09:45 | 29.93331 | 113.59517 | 30843 ft | 501 kts | 360° |
| 2026-04-23 09:45 | 29.96747 | 113.60593 | 31038 ft | 518 kts | 12° |
| 2026-04-23 09:45 | 30.00089 | 113.62224 | 31260 ft | 522 kts | 15° |
| 2026-04-23 09:45 | 30.03404 | 113.63927 | 31486 ft | 522 kts | 15° |
| 2026-04-23 09:46 | 30.06726 | 113.65645 | 31712 ft | 522 kts | 15° |
| 2026-04-23 09:46 | 30.10039 | 113.67337 | 31925 ft | 521 kts | 14° |
| 2026-04-23 09:46 | 30.13365 | 113.68998 | 32138 ft | 520 kts | 14° |
| 2026-04-23 09:46 | 30.16692 | 113.70641 | 32350 ft | 520 kts | 14° |
| 2026-04-23 09:47 | 30.20026 | 113.72293 | 32552 ft | 520 kts | 14° |
| 2026-04-23 09:47 | 30.23345 | 113.73948 | 32758 ft | 520 kts | 14° |
| 2026-04-23 09:47 | 30.26622 | 113.75600 | 32946 ft | 520 kts | 14° |
| 2026-04-23 09:47 | 30.29940 | 113.77267 | 33139 ft | 519 kts | 14° |
| 2026-04-23 09:48 | 30.33250 | 113.78926 | 33334 ft | 519 kts | 14° |
| 2026-04-23 09:48 | 30.36555 | 113.80592 | 33536 ft | 518 kts | 14° |
| 2026-04-23 09:48 | 30.39863 | 113.82260 | 33715 ft | 518 kts | 14° |
| 2026-04-23 09:48 | 30.43166 | 113.83920 | 33883 ft | 517 kts | 14° |
| 2026-04-23 09:49 | 30.46466 | 113.85571 | 34058 ft | 516 kts | 14° |
| 2026-04-23 09:49 | 30.49760 | 113.87228 | 34199 ft | 516 kts | 14° |
| 2026-04-23 09:49 | 30.53056 | 113.88881 | 34329 ft | 515 kts | 14° |
| 2026-04-23 09:49 | 30.56338 | 113.90530 | 34510 ft | 512 kts | 14° |
| 2026-04-23 09:50 | 30.59553 | 113.92155 | 34769 ft | 507 kts | 14° |
| 2026-04-23 09:50 | 30.62788 | 113.93794 | 35008 ft | 504 kts | 13° |
| 2026-04-23 09:50 | 30.66013 | 113.95363 | 35128 ft | 503 kts | 12° |
| 2026-04-23 09:51 | 30.72405 | 113.98618 | 35117 ft | 506 kts | 16° |
| 2026-04-23 09:51 | 30.78748 | 114.02179 | 35100 ft | 506 kts | 16° |
| 2026-04-23 09:52 | 30.85125 | 114.05629 | 35096 ft | 505 kts | 15° |
| 2026-04-23 09:52 | 30.91502 | 114.09074 | 35099 ft | 506 kts | 15° |
| 2026-04-23 09:53 | 30.97884 | 114.12531 | 35099 ft | 505 kts | 15° |
| 2026-04-23 09:53 | 31.04266 | 114.15993 | 35099 ft | 506 kts | 16° |
| 2026-04-23 09:54 | 31.10644 | 114.19462 | 35103 ft | 506 kts | 16° |
| 2026-04-23 09:54 | 31.17022 | 114.22933 | 35112 ft | 506 kts | 16° |
| 2026-04-23 09:55 | 31.23319 | 114.26399 | 35098 ft | 506 kts | 16° |
| 2026-04-23 09:55 | 31.29703 | 114.29883 | 35098 ft | 506 kts | 16° |
| 2026-04-23 09:56 | 31.36163 | 114.32881 | 35097 ft | 489 kts | 2° |
| 2026-04-23 09:56 | 31.39475 | 114.33379 | 35104 ft | 472 kts | 352° |
| 2026-04-23 09:56 | 31.42745 | 114.33476 | 35107 ft | 469 kts | 350° |
| 2026-04-23 09:57 | 31.49270 | 114.33576 | 35104 ft | 469 kts | 350° |
| 2026-04-23 09:57 | 31.55811 | 114.33747 | 35102 ft | 471 kts | 351° |
| 2026-04-23 09:58 | 31.62359 | 114.33942 | 35113 ft | 470 kts | 351° |
| 2026-04-23 09:58 | 31.68847 | 114.34133 | 35111 ft | 469 kts | 351° |
| 2026-04-23 09:59 | 31.75361 | 114.34325 | 35118 ft | 468 kts | 351° |
| 2026-04-23 09:59 | 31.81874 | 114.34529 | 35117 ft | 468 kts | 351° |
| 2026-04-23 10:00 | 31.88342 | 114.34720 | 34709 ft | 468 kts | 352° |
| 2026-04-23 10:00 | 31.91601 | 114.34818 | 35117 ft | 468 kts | 352° |
| 2026-04-23 10:00 | 31.94849 | 114.34918 | 35114 ft | 467 kts | 352° |
| 2026-04-23 10:01 | 32.01351 | 114.35120 | 35103 ft | 467 kts | 352° |
| 2026-04-23 10:01 | 32.07845 | 114.35315 | 35108 ft | 466 kts | 352° |
| 2026-04-23 10:02 | 32.14330 | 114.35509 | 35103 ft | 465 kts | 352° |
| 2026-04-23 10:02 | 32.20815 | 114.35706 | 35108 ft | 465 kts | 352° |
| 2026-04-23 10:03 | 32.27288 | 114.36003 | 35099 ft | 468 kts | 355° |
| 2026-04-23 10:03 | 32.33740 | 114.36579 | 35103 ft | 467 kts | 355° |
| 2026-04-23 10:04 | 32.40230 | 114.37163 | 35100 ft | 467 kts | 355° |
| 2026-04-23 10:04 | 32.46708 | 114.37759 | 35105 ft | 467 kts | 355° |
| 2026-04-23 10:05 | 32.53155 | 114.38350 | 35099 ft | 466 kts | 355° |
| 2026-04-23 10:05 | 32.59614 | 114.38941 | 35102 ft | 466 kts | 356° |
| 2026-04-23 10:06 | 32.64989 | 114.39438 | 35100 ft | 465 kts | 356° |
| 2026-04-23 10:06 | 32.71442 | 114.40032 | 35099 ft | 465 kts | 356° |
| 2026-04-23 10:07 | 32.77894 | 114.40634 | 35099 ft | 465 kts | 356° |
| 2026-04-23 10:07 | 32.84326 | 114.41233 | 35093 ft | 464 kts | 356° |
| 2026-04-23 10:08 | 32.90789 | 114.41837 | 35093 ft | 464 kts | 356° |
| 2026-04-23 10:08 | 32.97214 | 114.42436 | 35098 ft | 463 kts | 356° |
| 2026-04-23 10:09 | 33.06865 | 114.43340 | 35091 ft | 463 kts | 356° |
| 2026-04-23 10:09 | 33.13292 | 114.43940 | 35096 ft | 463 kts | 356° |
| 2026-04-23 10:10 | 33.19645 | 114.44539 | 35105 ft | 463 kts | 357° |
| 2026-04-23 10:10 | 33.26071 | 114.45143 | 35093 ft | 462 kts | 357° |
| 2026-04-23 10:11 | 33.32486 | 114.45751 | 35092 ft | 462 kts | 357° |
| 2026-04-23 10:11 | 33.38892 | 114.46349 | 35093 ft | 462 kts | 357° |
| 2026-04-23 10:12 | 33.45305 | 114.46953 | 35087 ft | 462 kts | 357° |
| 2026-04-23 10:12 | 33.51709 | 114.47561 | 35086 ft | 461 kts | 357° |
| 2026-04-23 10:13 | 33.58108 | 114.48162 | 35090 ft | 461 kts | 357° |
| 2026-04-23 10:13 | 33.64501 | 114.48767 | 35087 ft | 460 kts | 357° |
| 2026-04-23 10:14 | 33.70896 | 114.49365 | 35091 ft | 460 kts | 357° |
| 2026-04-23 10:14 | 33.77285 | 114.49961 | 35090 ft | 460 kts | 357° |
| 2026-04-23 10:15 | 33.83600 | 114.50552 | 35091 ft | 460 kts | 357° |
| 2026-04-23 10:15 | 33.89982 | 114.51152 | 35092 ft | 460 kts | 358° |
| 2026-04-23 10:16 | 33.96369 | 114.51756 | 35086 ft | 460 kts | 358° |
| 2026-04-23 10:16 | 34.02757 | 114.52356 | 35091 ft | 460 kts | 358° |
| 2026-04-23 10:17 | 34.09137 | 114.52960 | 35087 ft | 460 kts | 358° |
| 2026-04-23 10:17 | 34.15526 | 114.53567 | 35090 ft | 460 kts | 358° |
| 2026-04-23 10:18 | 34.21915 | 114.54173 | 35091 ft | 461 kts | 358° |
| 2026-04-23 10:18 | 34.28303 | 114.54780 | 35092 ft | 460 kts | 358° |
| 2026-04-23 10:19 | 34.34647 | 114.55383 | 35085 ft | 460 kts | 358° |
| 2026-04-23 10:19 | 34.41040 | 114.55995 | 35089 ft | 460 kts | 358° |
| 2026-04-23 10:20 | 34.47402 | 114.56601 | 35088 ft | 460 kts | 358° |
| 2026-04-23 10:20 | 34.53788 | 114.57208 | 35088 ft | 460 kts | 358° |
| 2026-04-23 10:21 | 34.60177 | 114.57812 | 35087 ft | 461 kts | 358° |
| 2026-04-23 10:21 | 34.66570 | 114.58420 | 35082 ft | 460 kts | 358° |
| 2026-04-23 10:22 | 34.72966 | 114.59025 | 35079 ft | 462 kts | 358° |
| 2026-04-23 10:22 | 34.79339 | 114.59631 | 35083 ft | 461 kts | 358° |
| 2026-04-23 10:23 | 34.85729 | 114.60243 | 35078 ft | 461 kts | 358° |
| 2026-04-23 10:23 | 34.92137 | 114.60853 | 35082 ft | 461 kts | 358° |
| 2026-04-23 10:24 | 34.98539 | 114.61465 | 35075 ft | 461 kts | 358° |
| 2026-04-23 10:24 | 35.04941 | 114.62086 | 35080 ft | 461 kts | 358° |
| 2026-04-23 10:25 | 35.11318 | 114.62699 | 35069 ft | 461 kts | 358° |
| 2026-04-23 10:25 | 35.17712 | 114.63315 | 35070 ft | 460 kts | 358° |
| 2026-04-23 10:26 | 35.24062 | 114.63923 | 35060 ft | 460 kts | 358° |
| 2026-04-23 10:26 | 35.30456 | 114.64538 | 35068 ft | 460 kts | 358° |
| 2026-04-23 10:27 | 35.36841 | 114.65158 | 35059 ft | 460 kts | 358° |
| 2026-04-23 10:27 | 35.43233 | 114.65776 | 35057 ft | 460 kts | 357° |
| 2026-04-23 10:28 | 35.49623 | 114.66398 | 35051 ft | 461 kts | 357° |
| 2026-04-23 10:28 | 35.55969 | 114.67013 | 35056 ft | 461 kts | 357° |
| 2026-04-23 10:29 | 35.62367 | 114.67637 | 35046 ft | 461 kts | 357° |
| 2026-04-23 10:29 | 35.68767 | 114.68260 | 35049 ft | 461 kts | 357° |
| 2026-04-23 10:30 | 35.75155 | 114.68885 | 35042 ft | 462 kts | 357° |
| 2026-04-23 10:30 | 35.81561 | 114.69510 | 35040 ft | 462 kts | 357° |
| 2026-04-23 10:31 | 35.87979 | 114.70137 | 35036 ft | 462 kts | 357° |
| 2026-04-23 10:31 | 35.94352 | 114.70763 | 35036 ft | 462 kts | 357° |
| 2026-04-23 10:32 | 36.00766 | 114.71395 | 35029 ft | 463 kts | 357° |
| 2026-04-23 10:32 | 36.07184 | 114.72027 | 35030 ft | 463 kts | 356° |
| 2026-04-23 10:33 | 36.13601 | 114.72655 | 35023 ft | 463 kts | 356° |
| 2026-04-23 10:33 | 36.20028 | 114.73283 | 35027 ft | 463 kts | 356° |
| 2026-04-23 10:34 | 36.26452 | 114.73914 | 35019 ft | 463 kts | 356° |
| 2026-04-23 10:34 | 36.32883 | 114.74554 | 35016 ft | 463 kts | 356° |
| 2026-04-23 10:35 | 36.39242 | 114.76031 | 35010 ft | 484 kts | 14° |
| 2026-04-23 10:35 | 36.45382 | 114.79586 | 35019 ft | 487 kts | 19° |
| 2026-04-23 10:36 | 36.51506 | 114.83216 | 35011 ft | 488 kts | 18° |
| 2026-04-23 10:36 | 36.57661 | 114.86782 | 35011 ft | 487 kts | 18° |
| 2026-04-23 10:37 | 36.63777 | 114.90312 | 35010 ft | 488 kts | 18° |
| 2026-04-23 10:37 | 36.69932 | 114.93873 | 35006 ft | 488 kts | 18° |
| 2026-04-23 10:38 | 36.76093 | 114.97459 | 35002 ft | 489 kts | 18° |
| 2026-04-23 10:38 | 36.82247 | 115.01054 | 35005 ft | 489 kts | 18° |
| 2026-04-23 10:39 | 36.88418 | 115.04664 | 35001 ft | 491 kts | 18° |
| 2026-04-23 10:39 | 36.94601 | 115.08286 | 35004 ft | 490 kts | 18° |
| 2026-04-23 10:40 | 37.00756 | 115.11898 | 34996 ft | 490 kts | 18° |
| 2026-04-23 10:40 | 37.06920 | 115.15522 | 35001 ft | 489 kts | 18° |
| 2026-04-23 10:41 | 37.13085 | 115.19155 | 34998 ft | 489 kts | 18° |
| 2026-04-23 10:41 | 37.19243 | 115.22788 | 34995 ft | 489 kts | 18° |
| 2026-04-23 10:42 | 37.25404 | 115.26432 | 34994 ft | 490 kts | 18° |
| 2026-04-23 10:42 | 37.31525 | 115.30058 | 34999 ft | 489 kts | 19° |
| 2026-04-23 10:43 | 37.37684 | 115.33710 | 34994 ft | 490 kts | 19° |
| 2026-04-23 10:43 | 37.43852 | 115.37386 | 34993 ft | 490 kts | 19° |
| 2026-04-23 10:44 | 37.50019 | 115.41067 | 34986 ft | 491 kts | 19° |
| 2026-04-23 10:44 | 37.56145 | 115.44773 | 34993 ft | 491 kts | 19° |
| 2026-04-23 10:45 | 37.62308 | 115.48435 | 34985 ft | 491 kts | 18° |
| 2026-04-23 10:45 | 37.68505 | 115.52102 | 34988 ft | 492 kts | 19° |
| 2026-04-23 10:46 | 37.74661 | 115.55793 | 34725 ft | 488 kts | 19° |
| 2026-04-23 10:46 | 37.77776 | 115.57486 | 34450 ft | 484 kts | 12° |
| 2026-04-23 10:46 | 37.81013 | 115.58481 | 34179 ft | 473 kts | 0° |
| 2026-04-23 10:47 | 37.84236 | 115.58663 | 33617 ft | 459 kts | 349° |
| 2026-04-23 10:47 | 37.87410 | 115.58432 | 32933 ft | 457 kts | 348° |
| 2026-04-23 10:47 | 37.90574 | 115.58144 | 32237 ft | 457 kts | 348° |
| 2026-04-23 10:47 | 37.93757 | 115.57869 | 31570 ft | 458 kts | 349° |
| 2026-04-23 10:48 | 37.96902 | 115.57623 | 30964 ft | 458 kts | 349° |
| 2026-04-23 10:48 | 38.00077 | 115.57380 | 30404 ft | 456 kts | 349° |
| 2026-04-23 10:48 | 38.03233 | 115.57134 | 30024 ft | 449 kts | 357° |
| 2026-04-23 10:48 | 38.06312 | 115.56911 | 29453 ft | 440 kts | 357° |
| 2026-04-23 10:49 | 38.09356 | 115.56744 | 28798 ft | 434 kts | 359° |
| 2026-04-23 10:49 | 38.12359 | 115.56587 | 28174 ft | 429 kts | 357° |
| 2026-04-23 10:49 | 38.15353 | 115.56381 | 27604 ft | 422 kts | 357° |
| 2026-04-23 10:49 | 38.18223 | 115.56180 | 27063 ft | 416 kts | 357° |
| 2026-04-23 10:50 | 38.21070 | 115.55974 | 26522 ft | 410 kts | 357° |
| 2026-04-23 10:50 | 38.23899 | 115.55867 | 26006 ft | 404 kts | 1° |
| 2026-04-23 10:50 | 38.26669 | 115.56241 | 25511 ft | 398 kts | 10° |
| 2026-04-23 10:50 | 38.29316 | 115.57185 | 25015 ft | 394 kts | 20° |
| 2026-04-23 10:51 | 38.31813 | 115.58618 | 24530 ft | 392 kts | 25° |
| 2026-04-23 10:51 | 38.34249 | 115.60171 | 24018 ft | 390 kts | 25° |
| 2026-04-23 10:51 | 38.36669 | 115.61719 | 23530 ft | 389 kts | 25° |
| 2026-04-23 10:51 | 38.39083 | 115.63251 | 22976 ft | 387 kts | 25° |
| 2026-04-23 10:52 | 38.41491 | 115.64771 | 22459 ft | 384 kts | 25° |
| 2026-04-23 10:52 | 38.43873 | 115.66272 | 21934 ft | 382 kts | 25° |
| 2026-04-23 10:52 | 38.46254 | 115.67773 | 21419 ft | 380 kts | 25° |
| 2026-04-23 10:52 | 38.48617 | 115.69263 | 20927 ft | 377 kts | 25° |
| 2026-04-23 10:53 | 38.50171 | 115.70246 | 20608 ft | 376 kts | 25° |
| 2026-04-23 10:53 | 38.53260 | 115.72202 | 19990 ft | 372 kts | 24° |
| 2026-04-23 10:53 | 38.54826 | 115.73193 | 19693 ft | 370 kts | 24° |
| 2026-04-23 10:53 | 38.57871 | 115.75118 | 19126 ft | 367 kts | 24° |
| 2026-04-23 10:54 | 38.59411 | 115.76092 | 18840 ft | 366 kts | 24° |
| 2026-04-23 10:54 | 38.61689 | 115.77537 | 18418 ft | 365 kts | 24° |
| 2026-04-23 10:54 | 38.63963 | 115.78976 | 17979 ft | 364 kts | 24° |
| 2026-04-23 10:54 | 38.66183 | 115.80512 | 17608 ft | 364 kts | 31° |
| 2026-04-23 10:55 | 38.68184 | 115.82463 | 17541 ft | 365 kts | 37° |
| 2026-04-23 10:55 | 38.70123 | 115.84553 | 17544 ft | 365 kts | 38° |
| 2026-04-23 10:55 | 38.72058 | 115.86657 | 17560 ft | 365 kts | 38° |
| 2026-04-23 10:55 | 38.73970 | 115.88727 | 17574 ft | 365 kts | 38° |
| 2026-04-23 10:56 | 38.75914 | 115.90829 | 17572 ft | 365 kts | 38° |
| 2026-04-23 10:56 | 38.77857 | 115.92922 | 17569 ft | 365 kts | 38° |
| 2026-04-23 10:56 | 38.79797 | 115.95014 | 17577 ft | 365 kts | 38° |
| 2026-04-23 10:56 | 38.81734 | 115.97104 | 17575 ft | 364 kts | 38° |
| 2026-04-23 10:57 | 38.83673 | 115.99198 | 17576 ft | 364 kts | 38° |
| 2026-04-23 10:57 | 38.85612 | 116.01294 | 17576 ft | 364 kts | 38° |
| 2026-04-23 10:57 | 38.87547 | 116.03388 | 17575 ft | 364 kts | 38° |
| 2026-04-23 10:57 | 38.89478 | 116.05479 | 17575 ft | 364 kts | 38° |
| 2026-04-23 10:58 | 38.91410 | 116.07571 | 17576 ft | 364 kts | 38° |
| 2026-04-23 10:58 | 38.93327 | 116.09646 | 17581 ft | 363 kts | 38° |
| 2026-04-23 10:58 | 38.95279 | 116.11763 | 17582 ft | 363 kts | 38° |
| 2026-04-23 10:58 | 38.97214 | 116.13861 | 17580 ft | 363 kts | 38° |
| 2026-04-23 10:59 | 38.99144 | 116.15955 | 17578 ft | 363 kts | 38° |
| 2026-04-23 10:59 | 39.01105 | 116.17918 | 17575 ft | 361 kts | 30° |
| 2026-04-23 10:59 | 39.03371 | 116.19248 | 17574 ft | 357 kts | 13° |
| 2026-04-23 10:59 | 39.05825 | 116.19644 | 17581 ft | 356 kts | 357° |
| 2026-04-23 11:00 | 39.08278 | 116.19345 | 17594 ft | 357 kts | 351° |
| 2026-04-23 11:00 | 39.10723 | 116.18923 | 17589 ft | 355 kts | 351° |
| 2026-04-23 11:00 | 39.13184 | 116.18513 | 17586 ft | 356 kts | 352° |
| 2026-04-23 11:00 | 39.15649 | 116.18119 | 17581 ft | 354 kts | 352° |
| 2026-04-23 11:01 | 39.18092 | 116.17739 | 17580 ft | 356 kts | 352° |
| 2026-04-23 11:01 | 39.20550 | 116.17366 | 17583 ft | 355 kts | 352° |
| 2026-04-23 11:01 | 39.22976 | 116.16999 | 17579 ft | 355 kts | 352° |
| 2026-04-23 11:01 | 39.25425 | 116.16627 | 17575 ft | 354 kts | 352° |
| 2026-04-23 11:02 | 39.27877 | 116.16252 | 17578 ft | 354 kts | 352° |
| 2026-04-23 11:02 | 39.30336 | 116.15880 | 17577 ft | 355 kts | 352° |
| 2026-04-23 11:02 | 39.32758 | 116.15513 | 17579 ft | 355 kts | 352° |
| 2026-04-23 11:02 | 39.35210 | 116.15136 | 17579 ft | 355 kts | 352° |
| 2026-04-23 11:03 | 39.37665 | 116.14759 | 17580 ft | 355 kts | 352° |
| 2026-04-23 11:03 | 39.40117 | 116.14382 | 17576 ft | 355 kts | 352° |
| 2026-04-23 11:03 | 39.42586 | 116.14003 | 17579 ft | 355 kts | 352° |
| 2026-04-23 11:03 | 39.45032 | 116.13629 | 17578 ft | 355 kts | 352° |
| 2026-04-23 11:04 | 39.47487 | 116.13252 | 17578 ft | 355 kts | 352° |
| 2026-04-23 11:04 | 39.49942 | 116.12886 | 17576 ft | 355 kts | 352° |
| 2026-04-23 11:04 | 39.52403 | 116.12520 | 17571 ft | 355 kts | 352° |
| 2026-04-23 11:04 | 39.54854 | 116.12153 | 17578 ft | 355 kts | 352° |
| 2026-04-23 11:05 | 39.57290 | 116.11779 | 17569 ft | 355 kts | 352° |
| 2026-04-23 11:05 | 39.59740 | 116.11391 | 17567 ft | 355 kts | 351° |
| 2026-04-23 11:05 | 39.62161 | 116.11019 | 17217 ft | 347 kts | 352° |
| 2026-04-23 11:05 | 39.64557 | 116.10654 | 16625 ft | 347 kts | 352° |
| 2026-04-23 11:06 | 39.69306 | 116.09947 | 15685 ft | 344 kts | 351° |
| 2026-04-23 11:06 | 39.71679 | 116.09590 | 15389 ft | 342 kts | 351° |
| 2026-04-23 11:06 | 39.74072 | 116.09224 | 15120 ft | 341 kts | 351° |